Time;durP1;ratioP1;P1;durP2;ratioP2;P2;SDS_P1;SDS_P2;PMS_P1;PMS_P2;Temp;Humidity;BMP_temperature;BMP_pressure;BME280_temperature;BME280_humidity;BME280_pressure;Samples;Min_cycle;Max_cycle;Signal;HPM_P1;HPM_P2
2021/07/31 04:00:51;;;;;;;2.20;2.20;;;17.00;99.90;;;;;;5703393;23;20496;-70
2021/07/31 04:03:17;;;;;;;2.90;2.60;;;17.00;99.90;;;;;;4936567;29;20525;-70
2021/07/31 04:05:44;;;;;;;2.30;2.20;;;17.00;99.90;;;;;;4937228;29;20473;-71
2021/07/31 04:08:10;;;;;;;2.40;2.30;;;17.00;99.90;;;;;;4936927;29;20484;-71
2021/07/31 04:10:37;;;;;;;4.33;3.30;;;17.00;99.90;;;;;;4933017;29;20624;-71
2021/07/31 04:13:04;;;;;;;2.70;2.70;;;17.10;99.90;;;;;;4918315;29;20485;-71
2021/07/31 04:15:30;;;;;;;3.20;2.40;;;17.10;99.90;;;;;;4912139;29;20482;-72
2021/07/31 04:17:58;;;;;;;2.93;2.90;;;17.00;99.90;;;;;;4916889;29;20470;-72
2021/07/31 04:20:25;;;;;;;2.50;2.40;;;17.00;99.90;;;;;;4919532;29;20894;-71
2021/07/31 04:22:52;;;;;;;2.40;2.30;;;17.00;99.90;;;;;;4918336;29;20486;-68
2021/07/31 04:25:18;;;;;;;2.80;2.57;;;17.00;99.90;;;;;;4919214;29;20466;-68
2021/07/31 04:27:45;;;;;;;2.60;2.50;;;17.00;99.90;;;;;;4919582;29;20469;-68
2021/07/31 04:30:12;;;;;;;2.60;2.50;;;17.00;99.90;;;;;;4917975;29;20563;-69
2021/07/31 04:32:39;;;;;;;2.80;2.60;;;17.10;99.90;;;;;;4917830;29;20478;-67
2021/07/31 04:35:08;;;;;;;2.57;2.47;;;17.10;99.90;;;;;;4921760;29;20502;-68
2021/07/31 04:37:36;;;;;;;2.20;2.10;;;17.20;99.90;;;;;;4917206;29;20466;-67
2021/07/31 04:40:03;;;;;;;2.20;2.10;;;17.30;99.90;;;;;;4916260;29;21011;-69
2021/07/31 04:42:30;;;;;;;2.70;2.70;;;17.70;99.90;;;;;;4916844;29;20530;-68
2021/07/31 04:44:56;;;;;;;2.00;2.00;;;18.20;99.90;;;;;;4917180;29;21040;-67
2021/07/31 04:47:24;;;;;;;2.63;1.73;;;18.60;99.90;;;;;;4917186;29;20600;-68
2021/07/31 04:49:51;;;;;;;3.03;2.20;;;18.60;99.90;;;;;;4917041;29;20574;-67
2021/07/31 04:52:18;;;;;;;3.13;3.03;;;18.50;99.90;;;;;;4915779;29;20498;-68
2021/07/31 04:54:45;;;;;;;2.63;2.50;;;18.40;99.90;;;;;;4916681;29;20538;-68
2021/07/31 04:57:13;;;;;;;2.83;2.67;;;18.20;99.90;;;;;;4916936;29;20474;-68
2021/07/31 04:59:40;;;;;;;1.90;1.90;;;18.10;99.90;;;;;;4917774;29;20481;-68
2021/07/31 05:02:07;;;;;;;4.73;2.17;;;18.10;99.90;;;;;;4916499;29;20498;-71
2021/07/31 05:04:33;;;;;;;2.30;2.10;;;18.60;99.90;;;;;;4911535;29;20499;-72
2021/07/31 05:07:00;;;;;;;2.93;2.73;;;19.00;99.90;;;;;;4915793;29;20526;-72
2021/07/31 05:09:28;;;;;;;2.13;2.03;;;19.00;99.90;;;;;;4917559;29;20463;-71
2021/07/31 05:11:55;;;;;;;2.63;2.00;;;19.00;99.90;;;;;;4916323;29;20504;-71
2021/07/31 05:14:21;;;;;;;1.80;1.70;;;19.20;99.90;;;;;;4917375;29;20478;-72
2021/07/31 05:16:48;;;;;;;2.37;2.27;;;19.70;99.90;;;;;;4916465;29;20485;-71
2021/07/31 05:19:15;;;;;;;2.07;1.97;;;20.30;99.90;;;;;;4917694;29;20530;-70
2021/07/31 05:21:41;;;;;;;3.50;1.97;;;20.30;99.90;;;;;;4916338;29;20987;-70
2021/07/31 05:24:08;;;;;;;1.90;1.80;;;20.10;99.90;;;;;;4918068;29;20573;-70
2021/07/31 05:26:37;;;;;;;1.70;1.70;;;19.80;99.90;;;;;;4916665;29;20591;-70
2021/07/31 05:29:04;;;;;;;2.13;2.03;;;19.30;99.90;;;;;;4917641;29;20471;-70
2021/07/31 05:31:30;;;;;;;2.53;2.33;;;19.00;99.90;;;;;;4917105;29;20525;-71
2021/07/31 05:33:57;;;;;;;3.80;1.90;;;18.70;99.90;;;;;;4917513;29;20470;-70
2021/07/31 05:36:24;;;;;;;7.80;2.57;;;18.60;99.90;;;;;;4913414;29;21016;-70
2021/07/31 05:38:51;;;;;;;2.53;2.43;;;18.40;99.90;;;;;;4918088;29;20470;-70
2021/07/31 05:41:19;;;;;;;2.60;2.40;;;18.30;99.90;;;;;;4916565;29;20482;-69
2021/07/31 05:43:47;;;;;;;2.53;2.23;;;18.20;99.90;;;;;;4917343;29;20867;-70
2021/07/31 05:46:17;;;;;;;3.40;2.40;;;18.10;99.90;;;;;;4916829;29;20978;-69
2021/07/31 05:48:44;;;;;;;2.30;2.10;;;18.00;99.90;;;;;;4916728;29;20586;-70
2021/07/31 05:51:11;;;;;;;4.73;2.13;;;18.10;99.90;;;;;;4917080;29;20617;-69
2021/07/31 05:53:38;;;;;;;2.93;2.80;;;18.10;99.90;;;;;;4916810;29;20466;-71
2021/07/31 05:56:07;;;;;;;2.70;2.50;;;18.10;99.90;;;;;;4916516;29;20471;-71
2021/07/31 05:58:34;;;;;;;4.43;2.57;;;18.20;99.90;;;;;;4916470;29;20463;-70
2021/07/31 06:01:02;;;;;;;2.47;2.37;;;18.20;99.90;;;;;;4916918;29;20490;-71
2021/07/31 06:03:28;;;;;;;2.37;2.20;;;18.30;99.90;;;;;;4917182;29;20470;-70
2021/07/31 06:05:57;;;;;;;5.03;2.07;;;18.40;99.90;;;;;;4917132;29;20458;-71
2021/07/31 06:08:24;;;;;;;2.73;2.00;;;18.70;99.90;;;;;;4916328;29;20466;-71
2021/07/31 06:10:51;;;;;;;2.00;1.80;;;19.00;99.90;;;;;;4915971;29;20496;-69
2021/07/31 06:13:17;;;;;;;2.37;2.27;;;19.30;99.90;;;;;;4917819;29;20466;-68
2021/07/31 06:15:44;;;;;;;2.63;2.50;;;19.50;99.90;;;;;;4916412;29;20905;-71
2021/07/31 06:18:12;;;;;;;3.03;2.23;;;20.00;99.90;;;;;;4916153;29;20477;-68
2021/07/31 06:20:38;;;;;;;1.83;1.83;;;20.60;99.90;;;;;;4916200;29;20490;-67
2021/07/31 06:23:05;;;;;;;1.83;1.83;;;21.00;99.90;;;;;;4915100;29;20916;-67
2021/07/31 06:25:32;;;;;;;1.60;1.60;;;21.60;99.90;;;;;;4902827;29;20848;-67
2021/07/31 06:27:58;;;;;;;1.40;1.30;;;22.00;99.90;;;;;;4915286;29;20963;-67
2021/07/31 06:30:25;;;;;;;1.57;1.47;;;22.30;99.90;;;;;;4915557;29;20489;-68
2021/07/31 06:32:52;;;;;;;5.03;2.00;;;22.80;99.90;;;;;;4915169;29;20497;-67
2021/07/31 06:35:20;;;;;;;2.00;1.80;;;22.70;99.90;;;;;;4915423;29;20848;-67
2021/07/31 06:37:46;;;;;;;1.97;1.77;;;21.90;99.90;;;;;;4914681;29;21022;-68
2021/07/31 06:40:14;;;;;;;2.20;1.67;;;21.30;99.90;;;;;;4896610;29;20510;-67
2021/07/31 06:42:41;;;;;;;1.77;1.73;;;20.60;99.90;;;;;;4911129;29;20781;-68
2021/07/31 06:45:08;;;;;;;2.17;1.93;;;20.10;99.90;;;;;;4915630;29;20822;-67
2021/07/31 06:47:35;;;;;;;4.67;2.10;;;19.80;99.90;;;;;;4914963;29;20482;-67
2021/07/31 06:50:02;;;;;;;1.53;1.53;;;19.80;99.90;;;;;;4915298;29;20874;-70
2021/07/31 06:52:30;;;;;;;4.30;2.10;;;19.70;99.90;;;;;;4915024;29;20874;-70
2021/07/31 06:54:57;;;;;;;1.80;1.70;;;19.80;99.90;;;;;;4917252;29;20504;-72
2021/07/31 06:57:23;;;;;;;3.17;2.00;;;19.70;99.90;;;;;;4917430;29;20478;-73
2021/07/31 06:59:51;;;;;;;2.30;2.20;;;19.70;99.90;;;;;;4917580;29;20526;-73
2021/07/31 07:02:18;;;;;;;2.10;2.10;;;19.70;99.90;;;;;;4916519;29;20486;-73
2021/07/31 07:04:45;;;;;;;2.50;2.37;;;19.70;99.90;;;;;;4913309;29;20523;-73
2021/07/31 07:07:11;;;;;;;2.57;2.37;;;19.60;99.90;;;;;;4897894;29;20558;-73
2021/07/31 07:09:40;;;;;;;2.70;2.50;;;19.60;99.90;;;;;;4898189;29;20582;-71
2021/07/31 07:12:07;;;;;;;2.40;2.20;;;19.80;99.90;;;;;;4897475;29;20914;-73
2021/07/31 07:14:36;;;;;;;2.40;2.10;;;19.80;99.90;;;;;;4910679;29;20466;-73
2021/07/31 07:17:05;;;;;;;2.20;2.20;;;19.80;99.90;;;;;;4919660;29;20462;-73
2021/07/31 07:19:32;;;;;;;2.17;1.97;;;19.90;99.90;;;;;;4921095;29;20514;-73
2021/07/31 07:21:59;;;;;;;2.30;2.30;;;20.00;99.90;;;;;;4921543;29;20568;-72
2021/07/31 07:24:25;;;;;;;2.40;2.30;;;20.00;99.90;;;;;;4920270;29;20517;-72
2021/07/31 07:26:53;;;;;;;2.23;2.23;;;19.90;99.90;;;;;;4920248;29;20466;-73
2021/07/31 07:29:20;;;;;;;2.40;2.20;;;20.00;99.90;;;;;;4919817;29;20541;-73
2021/07/31 07:31:47;;;;;;;2.57;2.40;;;20.10;99.90;;;;;;4919979;29;20606;-72
2021/07/31 07:34:13;;;;;;;2.43;2.23;;;20.20;99.90;;;;;;4920340;29;20474;-73
2021/07/31 07:36:40;;;;;;;2.40;2.30;;;20.20;99.90;;;;;;4916981;29;20478;-72
2021/07/31 07:39:07;;;;;;;2.73;2.53;;;20.20;99.90;;;;;;4919598;29;20493;-73
2021/07/31 07:41:33;;;;;;;2.63;2.30;;;20.20;99.90;;;;;;4918635;29;20860;-73
2021/07/31 07:44:01;;;;;;;2.50;2.40;;;20.30;99.90;;;;;;4919406;29;20885;-73
2021/07/31 07:46:28;;;;;;;2.27;2.00;;;20.20;99.90;;;;;;4919067;29;20518;-73
2021/07/31 07:48:55;;;;;;;2.47;2.27;;;20.10;99.90;;;;;;4919441;29;20577;-72
2021/07/31 07:51:21;;;;;;;3.07;2.40;;;20.10;99.90;;;;;;4917893;29;20490;-72
2021/07/31 07:53:48;;;;;;;2.33;2.23;;;20.20;99.90;;;;;;4918344;29;20965;-72
2021/07/31 07:56:15;;;;;;;2.70;2.50;;;20.20;99.90;;;;;;4917552;29;20982;-72
2021/07/31 07:58:41;;;;;;;2.33;2.23;;;20.10;99.90;;;;;;4919101;29;20569;-72
2021/07/31 08:01:11;;;;;;;2.80;2.63;;;20.00;99.90;;;;;;4918168;29;20916;-73
2021/07/31 08:03:38;;;;;;;2.43;2.30;;;19.90;99.90;;;;;;4918054;29;20824;-72
2021/07/31 08:06:04;;;;;;;2.47;2.37;;;20.00;99.90;;;;;;4918273;29;20466;-72
2021/07/31 08:08:31;;;;;;;4.90;2.73;;;19.80;99.90;;;;;;4918077;29;20474;-70
2021/07/31 08:10:58;;;;;;;3.23;2.90;;;19.50;99.90;;;;;;4917981;29;20553;-71
2021/07/31 08:13:24;;;;;;;3.47;3.17;;;19.20;99.90;;;;;;4918259;29;20493;-71
2021/07/31 08:15:51;;;;;;;2.97;2.87;;;19.00;99.90;;;;;;4918750;29;20844;-71
2021/07/31 08:18:19;;;;;;;3.10;2.97;;;18.80;99.90;;;;;;4917865;29;20901;-71
2021/07/31 08:20:46;;;;;;;3.23;3.13;;;18.60;99.90;;;;;;4918827;29;20494;-71
2021/07/31 08:23:12;;;;;;;3.80;3.53;;;18.40;99.90;;;;;;4918245;29;20576;-72
2021/07/31 08:25:39;;;;;;;3.67;3.50;;;18.40;99.90;;;;;;4904577;29;20482;-71
2021/07/31 08:28:05;;;;;;;4.67;4.10;;;18.20;99.90;;;;;;4918351;29;20470;-73
2021/07/31 08:30:32;;;;;;;3.80;3.50;;;18.10;99.90;;;;;;4919235;29;20494;-72
2021/07/31 08:32:59;;;;;;;3.83;3.73;;;18.00;99.90;;;;;;4919214;29;20510;-72
2021/07/31 08:35:27;;;;;;;4.20;4.00;;;17.90;99.90;;;;;;4918912;29;20470;-71
2021/07/31 08:37:54;;;;;;;3.70;3.60;;;17.80;99.90;;;;;;4918829;29;20483;-72
2021/07/31 08:40:22;;;;;;;4.00;3.80;;;17.80;99.90;;;;;;4918870;29;20829;-70
2021/07/31 08:42:49;;;;;;;4.13;3.83;;;17.80;99.90;;;;;;4917755;29;20861;-70
2021/07/31 08:45:16;;;;;;;4.30;4.03;;;17.80;99.90;;;;;;4918206;29;20492;-70
2021/07/31 08:47:46;;;;;;;3.87;3.77;;;17.80;99.90;;;;;;4917664;29;20484;-70
2021/07/31 08:50:13;;;;;;;5.27;4.97;;;17.80;99.90;;;;;;4918500;29;20496;-70
2021/07/31 08:52:47;;;;;;;6.43;4.87;;;17.80;99.90;;;;;;4916704;29;20537;-70
2021/07/31 08:55:14;;;;;;;4.30;4.10;;;17.80;99.90;;;;;;4918901;29;20517;-71
2021/07/31 08:57:40;;;;;;;4.63;4.37;;;17.60;99.90;;;;;;4917727;29;20483;-71
2021/07/31 09:00:09;;;;;;;4.53;4.33;;;17.60;99.90;;;;;;4918179;29;20519;-71
2021/07/31 09:02:42;;;;;;;5.10;4.70;;;17.60;99.90;;;;;;4917103;29;20466;-70
2021/07/31 09:05:10;;;;;;;4.07;3.87;;;17.70;99.90;;;;;;4914678;29;20473;-67
2021/07/31 09:07:38;;;;;;;5.73;4.37;;;17.80;99.90;;;;;;4917902;29;20470;-68
2021/07/31 09:10:24;;;;;;;4.60;3.97;;;17.90;99.90;;;;;;4917980;29;20470;-67
2021/07/31 09:12:54;;;;;;;6.37;4.37;;;18.20;99.90;;;;;;4917134;29;20613;-67
2021/07/31 09:15:35;;;;;;;4.37;3.20;;;18.60;99.90;;;;;;4918009;29;20867;-66
2021/07/31 09:18:22;;;;;;;4.37;4.10;;;19.00;99.90;;;;;;4917070;29;20485;-70
2021/07/31 09:21:00;;;;;;;2.73;2.70;;;19.50;99.90;;;;;;4918437;29;20493;-71
2021/07/31 09:23:41;;;;;;;3.50;3.23;;;19.70;99.90;;;;;;4916911;29;20485;-71
2021/07/31 09:26:09;;;;;;;3.40;3.30;;;19.90;99.90;;;;;;4917614;29;20502;-70
2021/07/31 09:28:40;;;;;;;3.63;3.37;;;20.00;99.90;;;;;;4918228;29;20782;-72
2021/07/31 09:31:07;;;;;;;3.13;3.00;;;20.10;99.90;;;;;;4918504;29;20573;-71
2021/07/31 09:33:34;;;;;;;3.20;3.10;;;20.10;99.90;;;;;;4917699;29;20482;-70
2021/07/31 09:36:02;;;;;;;2.80;2.70;;;20.20;99.90;;;;;;4918427;29;20521;-70
2021/07/31 09:38:36;;;;;;;3.43;3.20;;;20.10;99.90;;;;;;4917301;29;20529;-71
2021/07/31 09:41:36;;;;;;;2.93;2.83;;;19.90;99.90;;;;;;4921731;29;20528;-71
2021/07/31 09:44:09;;;;;;;3.37;3.27;;;19.90;99.90;;;;;;4917043;29;20566;-71
2021/07/31 09:46:41;;;;;;;3.40;3.30;;;20.00;99.90;;;;;;4906549;29;20552;-71
2021/07/31 09:49:09;;;;;;;3.50;3.30;;;20.20;99.90;;;;;;4905395;29;20483;-71
2021/07/31 09:51:37;;;;;;;3.03;3.03;;;20.50;99.90;;;;;;4919131;29;20494;-70
2021/07/31 09:54:07;;;;;;;2.97;2.80;;;20.70;99.90;;;;;;4914208;29;20491;-70
2021/07/31 09:56:40;;;;;;;2.70;2.70;;;20.90;99.90;;;;;;4898256;29;20543;-70
2021/07/31 09:59:08;;;;;;;3.53;3.10;;;21.10;99.90;;;;;;4915667;29;20486;-70
2021/07/31 10:01:36;;;;;;;3.33;2.90;;;21.30;99.90;;;;;;4916820;29;20993;-70
2021/07/31 10:04:04;;;;;;;3.43;3.23;;;21.40;99.90;;;;;;4915656;29;20573;-71
2021/07/31 10:06:32;;;;;;;3.30;3.20;;;21.30;99.90;;;;;;4912531;29;20466;-70
2021/07/31 10:08:59;;;;;;;2.80;2.77;;;21.00;99.90;;;;;;4916665;29;20517;-70
2021/07/31 10:11:27;;;;;;;3.10;2.80;;;21.10;99.90;;;;;;4916286;29;20526;-70
2021/07/31 10:13:56;;;;;;;2.77;2.67;;;21.10;99.90;;;;;;4914117;29;20531;-70
2021/07/31 10:16:23;;;;;;;2.67;2.57;;;21.20;99.90;;;;;;4911390;29;20474;-70
2021/07/31 10:18:57;;;;;;;2.73;2.53;;;21.10;99.90;;;;;;4915510;29;20466;-68
2021/07/31 10:21:26;;;;;;;2.43;2.33;;;20.90;99.90;;;;;;4914670;29;20858;-69
2021/07/31 10:24:01;;;;;;;2.73;2.60;;;20.80;99.90;;;;;;4914747;29;20824;-69
2021/07/31 10:26:29;;;;;;;2.50;2.30;;;20.90;99.90;;;;;;4908130;29;20462;-69
2021/07/31 10:29:35;;;;;;;4.00;3.13;;;21.00;99.90;;;;;;4915863;29;20465;-70
2021/07/31 10:32:35;;;;;;;3.10;3.00;;;21.00;99.90;;;;;;4916810;29;20493;-70
2021/07/31 10:35:03;;;;;;;2.60;2.60;;;21.30;99.90;;;;;;4916117;29;20476;-70
2021/07/31 10:37:45;;;;;;;3.40;3.20;;;21.50;99.90;;;;;;4912746;29;20454;-70
2021/07/31 10:40:34;;;;;;;2.63;2.60;;;21.70;99.90;;;;;;4914367;29;20466;-70
2021/07/31 10:43:04;;;;;;;2.50;2.40;;;21.70;99.90;;;;;;4912896;29;20477;-70
2021/07/31 10:45:34;;;;;;;3.00;2.80;;;21.70;99.90;;;;;;4914693;29;20482;-71
2021/07/31 10:48:02;;;;;;;3.13;3.03;;;21.70;99.90;;;;;;4913490;29;20589;-71
2021/07/31 10:50:40;;;;;;;3.13;2.93;;;21.40;99.90;;;;;;4917349;29;20534;-70
2021/07/31 10:53:08;;;;;;;2.70;2.60;;;20.90;99.90;;;;;;4899148;29;20490;-70
2021/07/31 10:56:01;;;;;;;2.40;2.30;;;20.60;99.90;;;;;;4907082;29;20470;-72
2021/07/31 10:58:30;;;;;;;4.07;3.77;;;20.50;99.90;;;;;;4912684;29;20474;-70
2021/07/31 11:01:23;;;;;;;3.90;3.10;;;20.20;99.90;;;;;;4913745;29;20501;-68
2021/07/31 11:03:50;;;;;;;2.73;2.63;;;19.50;99.90;;;;;;4914494;29;21014;-70
2021/07/31 11:06:17;;;;;;;2.83;2.83;;;19.10;99.90;;;;;;4911007;29;21001;-68
2021/07/31 11:09:15;;;;;;;2.80;2.63;;;19.00;99.90;;;;;;4915442;29;20537;-69
2021/07/31 11:11:42;;;;;;;2.93;2.73;;;18.90;99.90;;;;;;4910002;29;20493;-70
2021/07/31 11:14:09;;;;;;;3.00;2.90;;;18.80;99.90;;;;;;4911711;29;20590;-68
2021/07/31 11:16:37;;;;;;;2.57;2.43;;;18.80;99.90;;;;;;4914931;29;20450;-67
2021/07/31 11:19:04;;;;;;;2.77;2.67;;;18.90;99.90;;;;;;4915068;29;20467;-68
2021/07/31 11:21:33;;;;;;;2.80;2.70;;;19.10;99.90;;;;;;4914078;29;20495;-67
2021/07/31 11:24:01;;;;;;;3.13;3.03;;;19.30;99.90;;;;;;4913057;29;20450;-67
2021/07/31 11:26:43;;;;;;;3.30;2.63;;;19.60;99.90;;;;;;4914309;29;20509;-70
2021/07/31 11:29:15;;;;;;;2.70;2.63;;;19.90;99.90;;;;;;4915446;29;20466;-71
2021/07/31 11:31:56;;;;;;;2.97;2.73;;;20.10;99.90;;;;;;4915288;29;20485;-71
2021/07/31 11:34:23;;;;;;;2.40;2.30;;;20.20;99.90;;;;;;4916185;29;20931;-68
2021/07/31 11:36:56;;;;;;;2.90;2.80;;;20.30;99.90;;;;;;4915342;29;20463;-68
2021/07/31 11:39:22;;;;;;;3.00;2.90;;;20.30;99.90;;;;;;4916254;29;20633;-66
2021/07/31 11:41:49;;;;;;;3.07;2.87;;;20.40;99.90;;;;;;4914973;29;20841;-68
2021/07/31 11:44:24;;;;;;;2.77;2.60;;;20.30;99.90;;;;;;4914405;29;20458;-70
2021/07/31 11:46:53;;;;;;;2.60;2.50;;;20.30;99.90;;;;;;4914436;29;20466;-69
2021/07/31 11:49:27;;;;;;;2.23;2.23;;;20.40;99.90;;;;;;4914674;29;20486;-69
2021/07/31 11:51:55;;;;;;;2.80;2.70;;;20.50;99.90;;;;;;4913840;29;20489;-70
2021/07/31 11:54:22;;;;;;;2.07;2.07;;;20.50;99.90;;;;;;4908208;29;20882;-70
2021/07/31 11:56:50;;;;;;;2.73;2.50;;;20.70;99.90;;;;;;4895446;29;20841;-70
2021/07/31 11:59:23;;;;;;;3.10;3.00;;;20.90;99.90;;;;;;4896040;29;20848;-69
2021/07/31 12:01:52;;;;;;;4.67;2.90;;;20.80;99.90;;;;;;4913497;29;21092;-68
2021/07/31 12:04:44;;;;;;;2.40;2.30;;;20.70;99.90;;;;;;4917026;29;20482;-68
2021/07/31 12:07:12;;;;;;;2.10;2.10;;;20.60;99.90;;;;;;4917793;29;20480;-68
2021/07/31 12:09:39;;;;;;;2.43;2.33;;;20.60;99.90;;;;;;4918063;29;20470;-68
2021/07/31 12:12:23;;;;;;;2.27;2.27;;;20.60;99.90;;;;;;4917982;29;20561;-70
2021/07/31 12:15:09;;;;;;;2.53;2.43;;;20.40;99.90;;;;;;4918351;29;20585;-70
2021/07/31 12:17:37;;;;;;;5.23;2.40;;;20.10;99.90;;;;;;4917745;29;20872;-70
2021/07/31 12:20:05;;;;;;;2.60;2.60;;;20.00;99.90;;;;;;4918306;29;20549;-70
2021/07/31 12:22:34;;;;;;;3.23;3.00;;;19.80;99.90;;;;;;4917500;29;20538;-69
2021/07/31 12:25:15;;;;;;;2.87;2.80;;;19.70;99.90;;;;;;4908663;29;20478;-70
2021/07/31 12:28:02;;;;;;;2.70;2.50;;;19.80;99.90;;;;;;4918249;29;20473;-71
2021/07/31 12:30:30;;;;;;;2.60;2.60;;;19.90;99.90;;;;;;4918256;29;20493;-69
2021/07/31 12:33:00;;;;;;;2.40;2.40;;;20.10;99.90;;;;;;4918090;29;20494;-69
2021/07/31 12:35:36;;;;;;;3.07;2.30;;;20.20;99.90;;;;;;4917703;29;20458;-70
2021/07/31 12:38:03;;;;;;;2.23;2.17;;;20.50;99.90;;;;;;4917570;29;20481;-69
2021/07/31 12:40:30;;;;;;;3.20;3.00;;;20.70;99.90;;;;;;4918108;29;20902;-70
2021/07/31 12:42:57;;;;;;;2.20;2.10;;;20.80;99.90;;;;;;4917428;29;20545;-70
2021/07/31 12:45:27;;;;;;;2.50;1.80;;;20.90;99.90;;;;;;4919253;29;20470;-70
2021/07/31 12:47:53;;;;;;;2.00;1.90;;;20.90;99.90;;;;;;4919431;29;20477;-70
2021/07/31 12:50:21;;;;;;;1.80;1.80;;;20.80;99.90;;;;;;4919111;29;20986;-71
2021/07/31 12:52:48;;;;;;;2.00;2.00;;;20.70;99.90;;;;;;4915070;29;20538;-70
2021/07/31 12:55:15;;;;;;;1.80;1.80;;;20.70;99.90;;;;;;4912762;29;20963;-70
2021/07/31 12:57:41;;;;;;;1.70;1.70;;;20.60;99.90;;;;;;4919864;29;20462;-70
2021/07/31 13:00:10;;;;;;;2.43;2.30;;;20.60;99.90;;;;;;4917332;29;20478;-69
2021/07/31 13:02:37;;;;;;;1.87;1.87;;;20.60;99.90;;;;;;4916656;29;20482;-70
2021/07/31 13:05:04;;;;;;;1.80;1.80;;;20.70;99.90;;;;;;4913796;29;20809;-71
2021/07/31 13:07:32;;;;;;;1.73;1.73;;;20.70;99.90;;;;;;4916953;29;20462;-70
2021/07/31 13:09:59;;;;;;;2.27;2.07;;;20.70;99.90;;;;;;4917014;29;20475;-70
2021/07/31 13:12:25;;;;;;;2.23;2.17;;;20.50;99.90;;;;;;4911674;29;20537;-69
2021/07/31 13:14:52;;;;;;;2.60;2.50;;;20.20;99.90;;;;;;4915192;29;20487;-70
2021/07/31 13:17:19;;;;;;;2.80;2.70;;;19.90;99.90;;;;;;4917622;29;20470;-70
2021/07/31 13:19:45;;;;;;;2.83;2.73;;;19.60;99.90;;;;;;4918278;29;20810;-70
2021/07/31 13:22:13;;;;;;;2.47;2.27;;;19.20;99.90;;;;;;4916353;29;20498;-70
2021/07/31 13:24:41;;;;;;;2.97;2.77;;;18.80;99.90;;;;;;4916925;29;20494;-69
2021/07/31 13:27:08;;;;;;;2.70;2.60;;;18.70;99.90;;;;;;4917428;29;20485;-70
2021/07/31 13:29:34;;;;;;;2.97;2.97;;;18.90;99.90;;;;;;4916894;29;20625;-70
2021/07/31 13:32:01;;;;;;;3.20;3.00;;;19.10;99.90;;;;;;4916323;29;20546;-70
2021/07/31 13:34:28;;;;;;;3.10;3.00;;;19.20;99.90;;;;;;4914297;29;20490;-70
2021/07/31 13:36:58;;;;;;;3.27;3.03;;;19.30;99.90;;;;;;4914367;29;20478;-70
2021/07/31 13:39:26;;;;;;;3.10;3.00;;;19.30;99.90;;;;;;4912958;29;20475;-69
2021/07/31 13:41:56;;;;;;;2.37;2.20;;;19.30;99.90;;;;;;4913207;29;20503;-70
2021/07/31 13:44:24;;;;;;;2.10;2.10;;;19.20;99.90;;;;;;4915868;29;20521;-69
2021/07/31 13:46:50;;;;;;;3.20;3.10;;;19.10;99.90;;;;;;4915482;29;20490;-69
2021/07/31 13:49:17;;;;;;;2.17;2.17;;;19.00;99.90;;;;;;4916958;29;20471;-69
2021/07/31 13:51:44;;;;;;;2.60;2.53;;;19.00;99.90;;;;;;4915419;29;20490;-70
2021/07/31 13:54:10;;;;;;;2.10;2.10;;;19.00;99.90;;;;;;4913790;29;21016;-70
2021/07/31 13:56:37;;;;;;;2.43;2.40;;;19.10;99.90;;;;;;4915831;29;20498;-69
2021/07/31 13:59:06;;;;;;;2.17;2.13;;;19.30;99.90;;;;;;4917902;29;20467;-70
2021/07/31 14:01:33;;;;;;;2.20;2.20;;;19.40;99.90;;;;;;4914905;29;21057;-70
2021/07/31 14:04:00;;;;;;;1.80;1.80;;;19.40;99.90;;;;;;4915942;29;20963;-70
2021/07/31 14:06:26;;;;;;;1.77;1.77;;;19.40;99.90;;;;;;4915957;29;20459;-69
2021/07/31 14:08:53;;;;;;;2.03;1.83;;;19.50;99.90;;;;;;4901608;29;20486;-70
2021/07/31 14:11:20;;;;;;;2.10;2.10;;;19.80;99.90;;;;;;4916070;29;20490;-70
2021/07/31 14:13:47;;;;;;;1.77;1.77;;;19.80;99.90;;;;;;4914787;29;20542;-70
2021/07/31 14:16:15;;;;;;;1.40;1.40;;;19.80;99.90;;;;;;4915568;29;20841;-69
2021/07/31 14:18:41;;;;;;;1.63;1.63;;;19.80;99.90;;;;;;4915081;29;20467;-69
2021/07/31 14:21:08;;;;;;;1.63;1.63;;;19.90;99.90;;;;;;4913495;29;20487;-70
2021/07/31 14:23:36;;;;;;;2.30;2.30;;;19.90;99.90;;;;;;4910548;29;20939;-71
2021/07/31 14:26:03;;;;;;;1.93;1.93;;;19.90;99.90;;;;;;4915280;29;20470;-70
2021/07/31 14:28:30;;;;;;;1.80;1.80;;;20.10;99.90;;;;;;4915779;29;20874;-72
2021/07/31 14:30:57;;;;;;;1.73;1.73;;;20.20;99.90;;;;;;4914390;29;20542;-70
2021/07/31 14:33:25;;;;;;;1.80;1.80;;;20.20;99.90;;;;;;4915942;29;20874;-72
2021/07/31 14:35:51;;;;;;;1.73;1.73;;;20.20;99.90;;;;;;4904085;29;20471;-72
2021/07/31 14:38:18;;;;;;;1.80;1.77;;;20.20;99.90;;;;;;4915269;29;20506;-71
2021/07/31 14:40:44;;;;;;;2.10;1.90;;;20.20;99.90;;;;;;4915645;29;20580;-71
2021/07/31 14:43:11;;;;;;;2.30;2.20;;;20.00;99.90;;;;;;4914889;29;21043;-71
2021/07/31 14:45:38;;;;;;;2.13;2.03;;;20.10;99.90;;;;;;4912198;29;20521;-71
2021/07/31 14:48:06;;;;;;;2.77;2.57;;;20.30;99.90;;;;;;4914806;29;20475;-72
2021/07/31 14:50:34;;;;;;;2.00;2.00;;;20.40;99.90;;;;;;4914571;29;20518;-72
2021/07/31 14:53:02;;;;;;;2.07;2.07;;;20.50;99.90;;;;;;4914794;29;20971;-72
2021/07/31 14:55:28;;;;;;;2.67;2.57;;;20.70;99.90;;;;;;4914306;29;20486;-72
2021/07/31 14:57:55;;;;;;;2.10;2.00;;;20.70;99.90;;;;;;4915461;29;20462;-72
2021/07/31 15:00:22;;;;;;;1.80;1.80;;;20.50;99.90;;;;;;4915228;29;20466;-72
2021/07/31 15:02:48;;;;;;;2.10;2.00;;;20.50;99.90;;;;;;4915708;29;20518;-72
2021/07/31 15:05:15;;;;;;;2.20;2.17;;;20.40;99.90;;;;;;4914949;29;20497;-72
2021/07/31 15:07:43;;;;;;;2.83;2.80;;;20.40;99.90;;;;;;4915324;29;20969;-69
2021/07/31 15:10:10;;;;;;;2.97;2.87;;;20.40;99.90;;;;;;4914259;29;20474;-71
2021/07/31 15:12:37;;;;;;;2.40;2.30;;;20.50;99.90;;;;;;4895262;29;20467;-70
2021/07/31 15:15:04;;;;;;;2.80;2.70;;;20.50;99.90;;;;;;4908928;29;20490;-72
2021/07/31 15:17:30;;;;;;;2.37;2.27;;;20.40;99.90;;;;;;4915059;29;20897;-71
2021/07/31 15:19:57;;;;;;;2.60;2.50;;;20.40;99.90;;;;;;4916040;29;20473;-71
2021/07/31 15:22:24;;;;;;;2.10;2.10;;;20.40;99.90;;;;;;4914732;29;20546;-69
2021/07/31 15:24:52;;;;;;;3.10;2.90;;;20.40;99.90;;;;;;4914942;29;20821;-69
2021/07/31 15:27:19;;;;;;;2.47;2.37;;;20.40;99.90;;;;;;4915358;29;20490;-70
2021/07/31 15:29:46;;;;;;;2.43;2.30;;;20.40;99.90;;;;;;4914827;29;20470;-68
2021/07/31 15:32:13;;;;;;;2.93;2.80;;;20.50;99.90;;;;;;4914678;29;20490;-69
2021/07/31 15:34:40;;;;;;;1.87;1.80;;;20.70;99.90;;;;;;4915376;29;20491;-70
2021/07/31 15:37:06;;;;;;;1.83;1.80;;;20.90;99.90;;;;;;4901126;29;20555;-70
2021/07/31 15:39:33;;;;;;;2.60;2.40;;;21.00;99.90;;;;;;4916602;29;20474;-70
2021/07/31 15:42:01;;;;;;;2.60;2.43;;;20.90;99.90;;;;;;4917844;29;20526;-68
2021/07/31 15:44:28;;;;;;;2.73;2.63;;;20.80;99.90;;;;;;4915893;29;20466;-67
2021/07/31 15:46:55;;;;;;;2.60;2.50;;;20.80;99.90;;;;;;4916593;29;20525;-66
2021/07/31 15:49:21;;;;;;;2.77;2.67;;;20.90;99.90;;;;;;4918209;29;20462;-67
2021/07/31 15:51:48;;;;;;;2.50;2.40;;;21.00;99.90;;;;;;4918378;29;20490;-68
2021/07/31 15:54:14;;;;;;;1.90;1.90;;;20.90;99.90;;;;;;4917227;29;21026;-67
2021/07/31 15:56:42;;;;;;;2.97;2.77;;;20.80;99.90;;;;;;4918264;29;20462;-67
2021/07/31 15:59:11;;;;;;;1.90;1.90;;;20.70;99.90;;;;;;4918279;29;20499;-68
2021/07/31 16:01:38;;;;;;;1.83;1.83;;;20.70;99.90;;;;;;4912619;29;20503;-69
2021/07/31 16:04:05;;;;;;;2.00;2.00;;;20.70;99.90;;;;;;4916110;29;20470;-71
2021/07/31 16:06:32;;;;;;;2.10;2.00;;;20.70;99.90;;;;;;4918351;29;20596;-69
2021/07/31 16:08:59;;;;;;;2.00;1.83;;;20.80;99.90;;;;;;4918775;29;20546;-70
2021/07/31 16:11:25;;;;;;;1.87;1.80;;;20.80;99.90;;;;;;4918020;29;20493;-69
2021/07/31 16:13:52;;;;;;;1.77;1.60;;;20.70;99.90;;;;;;4911532;29;20504;-69
2021/07/31 16:16:21;;;;;;;1.90;1.80;;;20.60;99.90;;;;;;4914775;29;20466;-69
2021/07/31 16:18:48;;;;;;;1.40;1.40;;;20.60;99.90;;;;;;4911745;29;20479;-70
2021/07/31 16:21:19;;;;;;;1.30;1.30;;;20.50;99.90;;;;;;4913155;29;20533;-70
2021/07/31 16:23:45;;;;;;;1.60;1.60;;;20.40;99.90;;;;;;4917539;29;20466;-69
2021/07/31 16:26:12;;;;;;;1.37;1.37;;;20.40;99.90;;;;;;4917665;29;20470;-70
2021/07/31 16:28:39;;;;;;;1.63;1.63;;;20.70;99.90;;;;;;4918095;29;20493;-70
2021/07/31 16:31:05;;;;;;;1.40;1.40;;;21.00;99.90;;;;;;4918296;29;20530;-73
2021/07/31 16:33:33;;;;;;;1.40;1.40;;;21.10;99.90;;;;;;4917674;29;20824;-72
2021/07/31 16:36:01;;;;;;;1.60;1.50;;;21.10;99.90;;;;;;4917609;29;20498;-73
2021/07/31 16:38:28;;;;;;;2.73;1.53;;;21.20;99.90;;;;;;4917420;29;20513;-71
2021/07/31 16:40:54;;;;;;;2.43;1.80;;;21.00;99.90;;;;;;4907041;29;21026;-71
2021/07/31 16:43:21;;;;;;;1.80;1.70;;;20.90;99.90;;;;;;4910171;29;20498;-71
2021/07/31 16:45:48;;;;;;;1.80;1.70;;;21.00;99.90;;;;;;4914329;29;20490;-69
2021/07/31 16:48:14;;;;;;;2.47;2.37;;;21.10;99.90;;;;;;4917790;29;20550;-69
2021/07/31 16:50:43;;;;;;;2.00;1.70;;;21.00;99.90;;;;;;4916490;29;20486;-69
2021/07/31 16:53:09;;;;;;;2.83;2.20;;;20.90;99.90;;;;;;4916912;29;20522;-69
2021/07/31 16:55:36;;;;;;;4.37;2.00;;;20.80;99.90;;;;;;4917452;29;20498;-69